Time,TemperatureF,DewpointF,PressureIn,WindDirection,WindDirectionDegrees,WindSpeedMPH,WindSpeedGustMPH,Humidity,HourlyPrecipIn,Conditions,Clouds,dailyrainin,SolarRadiationWatts/m^2,SoftwareType,DateUTC
2013-05-16 00:00:00,92.0,52.0,-100.00,SSW,201,12.0,21.0,26,-99.99,,,-99.99,550.000000,,2013-05-16 00:00:00,
2013-05-16 00:05:00,92.0,52.0,-100.00,SSW,201,12.0,21.0,26,-99.99,,,-99.99,550.000000,,2013-05-16 00:05:00,
2013-05-16 01:07:00,87.0,49.0,-100.00,SSW,194,10.0,23.0,27,-99.99,,,0.28,102.000000,,2013-05-16 01:07:00,
2013-05-16 01:40:00,87.0,49.0,-100.00,SSW,194,10.0,23.0,27,-99.99,,,0.28,102.000000,,2013-05-16 01:40:00,
2013-05-16 01:49:00,87.0,49.0,-100.00,SSW,194,10.0,23.0,27,-99.99,,,0.28,102.000000,,2013-05-16 01:49:00,
2013-05-16 02:00:00,87.0,49.0,-100.00,SSW,194,10.0,23.0,27,-99.99,,,0.28,102.000000,,2013-05-16 02:00:00,
2013-05-16 02:07:00,82.0,50.0,-100.00,WSW,254,10.0,28.0,33,0.00,,,0.28,3.000000,,2013-05-16 02:07:00,
2013-05-16 02:40:00,82.0,50.0,-100.00,WSW,254,10.0,28.0,33,0.00,,,0.28,3.000000,,2013-05-16 02:40:00,
2013-05-16 02:48:00,82.0,50.0,-100.00,WSW,254,10.0,28.0,33,0.00,,,0.28,3.000000,,2013-05-16 02:48:00,
2013-05-16 02:55:00,82.0,50.0,-100.00,WSW,254,10.0,28.0,33,0.00,,,0.28,3.000000,,2013-05-16 02:55:00,
2013-05-16 03:40:00,75.0,52.0,-100.00,North,8,9.0,39.0,44,0.00,,,0.28,0.000000,,2013-05-16 03:40:00,
2013-05-16 03:47:00,75.0,52.0,-100.00,North,8,9.0,39.0,44,0.00,,,0.28,0.000000,,2013-05-16 03:47:00,
2013-05-16 03:56:00,75.0,52.0,-100.00,North,8,9.0,39.0,44,0.00,,,0.28,0.000000,,2013-05-16 03:56:00,
2013-05-16 04:02:00,75.0,52.0,-100.00,North,8,9.0,39.0,44,0.00,,,0.28,0.000000,,2013-05-16 04:02:00,
2013-05-16 04:33:00,72.0,58.0,-100.00,WSW,257,5.0,15.0,62,0.00,,,-99.99,0.000000,,2013-05-16 04:33:00,
2013-05-16 04:42:00,72.0,58.0,-100.00,WSW,257,5.0,15.0,62,0.00,,,-99.99,0.000000,,2013-05-16 04:42:00,
2013-05-16 04:53:00,72.0,58.0,-100.00,WSW,257,5.0,15.0,62,0.00,,,-99.99,0.000000,,2013-05-16 04:53:00,
2013-05-16 05:02:00,72.0,58.0,-100.00,WSW,257,5.0,15.0,62,0.00,,,-99.99,0.000000,,2013-05-16 05:02:00,
2013-05-16 05:32:00,70.0,56.0,-100.00,SSE,147,6.0,15.0,61,0.00,,,0.27,0.000000,,2013-05-16 05:32:00,
2013-05-16 05:42:00,70.0,56.0,-100.00,SSE,147,6.0,15.0,61,0.00,,,0.27,0.000000,,2013-05-16 05:42:00,
2013-05-16 05:52:00,70.0,56.0,-100.00,SSE,147,6.0,15.0,61,0.00,,,0.27,0.000000,,2013-05-16 05:52:00,
2013-05-16 06:01:00,70.0,56.0,-100.00,SSE,147,6.0,15.0,61,0.00,,,0.27,0.000000,,2013-05-16 06:01:00,
2013-05-16 06:33:00,70.0,57.0,-100.00,SSE,150,8.0,12.0,64,0.00,,,0.11,0.000000,,2013-05-16 06:33:00,
2013-05-16 06:43:00,70.0,57.0,-100.00,SSE,150,8.0,12.0,64,0.00,,,0.11,0.000000,,2013-05-16 06:43:00,
2013-05-16 06:53:00,70.0,57.0,-100.00,SSE,150,8.0,12.0,64,0.00,,,0.11,0.000000,,2013-05-16 06:53:00,
2013-05-16 07:02:00,70.0,57.0,-100.00,SSE,150,8.0,12.0,64,0.00,,,0.11,0.000000,,2013-05-16 07:02:00,
2013-05-16 07:34:00,72.0,63.0,-100.00,South,169,8.0,13.0,73,0.00,,,0.00,0.000000,,2013-05-16 07:34:00,
2013-05-16 07:44:00,72.0,63.0,-100.00,South,169,8.0,13.0,73,0.00,,,0.00,0.000000,,2013-05-16 07:44:00,
2013-05-16 07:54:00,72.0,63.0,-100.00,South,169,8.0,13.0,73,0.00,,,0.00,0.000000,,2013-05-16 07:54:00,
2013-05-16 08:03:00,72.0,63.0,-100.00,South,169,8.0,13.0,73,0.00,,,0.00,0.000000,,2013-05-16 08:03:00,
2013-05-16 08:35:00,74.0,64.0,-100.00,SSE,160,6.0,16.0,70,0.00,,,0.00,0.000000,,2013-05-16 08:35:00,
2013-05-16 08:45:00,74.0,64.0,-100.00,SSE,160,6.0,16.0,70,0.00,,,0.00,0.000000,,2013-05-16 08:45:00,
2013-05-16 08:55:00,74.0,64.0,-100.00,SSE,160,6.0,16.0,70,0.00,,,0.00,0.000000,,2013-05-16 08:55:00,
2013-05-16 09:04:00,74.0,64.0,-100.00,SSE,160,6.0,16.0,70,0.00,,,0.00,0.000000,,2013-05-16 09:04:00,
2013-05-16 09:35:00,74.0,67.0,-100.00,SE,144,7.0,17.0,79,0.00,,,0.00,0.000000,,2013-05-16 09:35:00,
2013-05-16 09:45:00,74.0,67.0,-100.00,SE,144,7.0,17.0,79,0.00,,,0.00,0.000000,,2013-05-16 09:45:00,
2013-05-16 09:55:00,74.0,67.0,-100.00,SE,144,7.0,17.0,79,0.00,,,0.00,0.000000,,2013-05-16 09:55:00,
2013-05-16 10:05:00,74.0,67.0,-100.00,SE,144,7.0,17.0,79,0.00,,,0.00,0.000000,,2013-05-16 10:05:00,
2013-05-16 10:36:00,73.0,66.0,-100.00,South,170,7.0,10.0,80,0.00,,,-99.99,0.000000,,2013-05-16 10:36:00,
2013-05-16 10:45:00,73.0,66.0,-100.00,South,170,7.0,10.0,80,0.00,,,-99.99,0.000000,,2013-05-16 10:45:00,
2013-05-16 10:56:00,73.0,66.0,-100.00,South,170,7.0,10.0,80,0.00,,,-99.99,0.000000,,2013-05-16 10:56:00,
2013-05-16 11:05:00,73.0,66.0,-100.00,South,170,7.0,10.0,80,0.00,,,-99.99,0.000000,,2013-05-16 11:05:00,
2013-05-16 11:35:00,72.0,66.0,-100.00,SSE,155,5.0,15.0,82,0.00,,,0.00,0.000000,,2013-05-16 11:35:00,
2013-05-16 11:46:00,72.0,66.0,-100.00,SSE,155,5.0,15.0,82,0.00,,,0.00,0.000000,,2013-05-16 11:46:00,
2013-05-16 11:57:00,72.0,66.0,-100.00,SSE,155,5.0,15.0,82,0.00,,,0.00,0.000000,,2013-05-16 11:57:00,
2013-05-16 12:06:00,72.0,66.0,-100.00,SSE,155,5.0,15.0,82,0.00,,,0.00,0.000000,,2013-05-16 12:06:00,
2013-05-16 12:35:00,71.0,66.0,-100.00,East,80,5.0,8.0,85,0.00,,,0.00,5.000000,,2013-05-16 12:35:00,
2013-05-16 12:45:00,71.0,66.0,-100.00,East,80,5.0,8.0,85,0.00,,,0.00,5.000000,,2013-05-16 12:45:00,
2013-05-16 12:53:00,71.0,66.0,-100.00,East,80,5.0,8.0,85,0.00,,,0.00,5.000000,,2013-05-16 12:53:00,
2013-05-16 13:04:00,71.0,66.0,-100.00,East,80,5.0,8.0,85,0.00,,,0.00,5.000000,,2013-05-16 13:04:00,
2013-05-16 13:35:00,73.0,68.0,-100.00,SE,144,4.0,8.0,85,0.00,,,-99.99,99.000000,,2013-05-16 13:35:00,
2013-05-16 13:44:00,73.0,68.0,-100.00,SE,144,4.0,8.0,85,0.00,,,-99.99,99.000000,,2013-05-16 13:44:00,
2013-05-16 13:55:00,73.0,68.0,-100.00,SE,144,4.0,8.0,85,0.00,,,-99.99,99.000000,,2013-05-16 13:55:00,
2013-05-16 14:05:00,73.0,68.0,-100.00,SE,144,4.0,8.0,85,0.00,,,-99.99,99.000000,,2013-05-16 14:05:00,
2013-05-16 14:07:00,77.0,68.0,-100.00,South,177,8.0,13.0,75,0.00,,,0.00,328.000000,,2013-05-16 14:07:00,
2013-05-16 14:37:00,77.0,68.0,-100.00,South,177,8.0,13.0,75,0.00,,,0.00,328.000000,,2013-05-16 14:37:00,
2013-05-16 14:47:00,77.0,68.0,-100.00,South,177,8.0,13.0,75,0.00,,,0.00,328.000000,,2013-05-16 14:47:00,
2013-05-16 14:56:00,77.0,68.0,-100.00,South,177,8.0,13.0,75,0.00,,,0.00,328.000000,,2013-05-16 14:56:00,
2013-05-16 15:07:00,81.0,69.0,-100.00,SSW,206,10.0,15.0,68,0.00,,,0.00,597.000000,,2013-05-16 15:07:00,
2013-05-16 15:40:00,81.0,69.0,-100.00,SSW,206,10.0,15.0,68,0.00,,,0.00,597.000000,,2013-05-16 15:40:00,
2013-05-16 15:50:00,81.0,69.0,-100.00,SSW,206,10.0,15.0,68,0.00,,,0.00,597.000000,,2013-05-16 15:50:00,
2013-05-16 16:00:00,81.0,69.0,-100.00,SSW,206,10.0,15.0,68,0.00,,,0.00,597.000000,,2013-05-16 16:00:00,
2013-05-16 16:07:00,84.0,68.0,-100.00,WSW,240,8.0,17.0,59,0.00,,,0.00,803.000000,,2013-05-16 16:07:00,
2013-05-16 16:40:00,84.0,-99.9,-100.00,WSW,240,8.0,17.0,59,0.00,,,0.00,803.000000,,2013-05-16 16:40:00,
2013-05-16 16:51:00,84.0,68.0,-100.00,WSW,240,8.0,17.0,59,0.00,,,0.00,803.000000,,2013-05-16 16:51:00,
2013-05-16 17:01:00,84.0,68.0,-100.00,WSW,240,8.0,17.0,59,0.00,,,0.00,803.000000,,2013-05-16 17:01:00,
2013-05-16 17:07:00,87.0,67.0,-100.00,WSW,245,9.0,15.0,51,0.00,,,-99.99,939.000000,,2013-05-16 17:07:00,
2013-05-16 17:40:00,87.0,67.0,-100.00,WSW,245,9.0,15.0,51,0.00,,,-99.99,939.000000,,2013-05-16 17:40:00,
2013-05-16 17:50:00,-999.0,-99.9,-100.00,WSW,245,9.0,15.0,51,0.00,,,-99.99,939.000000,,2013-05-16 17:50:00,
2013-05-16 18:00:00,-999.0,-99.9,-100.00,WSW,245,9.0,15.0,51,0.00,,,-99.99,939.000000,,2013-05-16 18:00:00,
2013-05-16 18:07:00,90.0,61.0,-100.00,WSW,257,9.0,15.0,38,0.00,,,0.00,1068.000000,,2013-05-16 18:07:00,
2013-05-16 18:41:00,-999.0,-99.9,-100.00,WSW,257,9.0,15.0,38,0.00,,,0.00,1068.000000,,2013-05-16 18:41:00,
2013-05-16 18:50:00,-999.0,-99.9,-100.00,WSW,257,9.0,15.0,38,0.00,,,0.00,1068.000000,,2013-05-16 18:50:00,
2013-05-16 19:00:00,-999.0,-99.9,-100.00,WSW,257,9.0,15.0,38,0.00,,,0.00,1068.000000,,2013-05-16 19:00:00,
2013-05-16 19:07:00,-999.0,-99.9,-100.00,WSW,249,9.0,14.0,37,0.00,,,0.00,1093.000000,,2013-05-16 19:07:00,
2013-05-16 19:40:00,92.0,-99.9,-100.00,WSW,249,9.0,14.0,37,0.00,,,0.00,1093.000000,,2013-05-16 19:40:00,
2013-05-16 19:51:00,-999.0,-99.9,-100.00,WSW,249,9.0,14.0,37,0.00,,,0.00,1093.000000,,2013-05-16 19:51:00,
2013-05-16 20:01:00,-999.0,-99.9,-100.00,WSW,249,9.0,14.0,37,0.00,,,0.00,1093.000000,,2013-05-16 20:01:00,
2013-05-16 20:07:00,94.0,-99.9,-100.00,WNW,295,5.0,12.0,35,0.00,,,0.00,1057.000000,,2013-05-16 20:07:00,
2013-05-16 20:41:00,-999.0,-99.9,-100.00,WNW,295,5.0,12.0,35,0.00,,,0.00,1057.000000,,2013-05-16 20:41:00,
2013-05-16 20:51:00,94.0,62.0,-100.00,WNW,295,5.0,12.0,35,0.00,,,0.00,1057.000000,,2013-05-16 20:51:00,
2013-05-16 21:00:00,94.0,-99.9,-100.00,WNW,295,5.0,12.0,35,0.00,,,0.00,1057.000000,,2013-05-16 21:00:00,
2013-05-16 21:07:00,96.0,62.0,-100.00,NNW,338,5.0,10.0,33,0.00,,,0.00,951.000000,,2013-05-16 21:07:00,
2013-05-16 22:00:00,-999.0,-99.9,-100.00,NNW,338,5.0,10.0,33,0.00,,,0.00,951.000000,,2013-05-16 22:00:00,
2013-05-16 22:40:00,96.0,59.0,-100.00,North,7,6.0,10.0,30,0.00,,,-99.99,786.000000,,2013-05-16 22:40:00,
2013-05-16 22:51:00,96.0,59.0,-100.00,North,7,6.0,10.0,30,0.00,,,-99.99,786.000000,,2013-05-16 22:51:00,
2013-05-16 23:01:00,96.0,59.0,-100.00,North,7,6.0,10.0,30,0.00,,,-99.99,786.000000,,2013-05-16 23:01:00,
2013-05-16 23:06:00,96.0,59.0,-100.00,North,7,6.0,10.0,30,0.00,,,-99.99,786.000000,,2013-05-16 23:06:00,
2013-05-16 23:35:00,97.0,59.0,-100.00,NW,326,5.0,8.0,29,0.00,,,0.00,569.000000,,2013-05-16 23:35:00,
2013-05-16 23:45:00,97.0,59.0,-100.00,NW,326,5.0,8.0,29,0.00,,,0.00,569.000000,,2013-05-16 23:45:00,
2013-05-16 23:54:00,97.0,59.0,-100.00,NW,326,5.0,8.0,29,0.00,,,0.00,569.000000,,2013-05-16 23:54:00,